sensor_id;sensor_type;location;lat;lon;timestamp;temperature;humidity
24408;DHT22;12542;50.924;4.516;2023-06-14T00:00:40;19.30;99.90
24408;DHT22;12542;50.924;4.516;2023-06-14T00:03:10;19.20;99.90
24408;DHT22;12542;50.924;4.516;2023-06-14T00:05:37;19.10;99.90
24408;DHT22;12542;50.924;4.516;2023-06-14T00:08:09;19.20;99.90
24408;DHT22;12542;50.924;4.516;2023-06-14T00:10:36;19.10;99.90
24408;DHT22;12542;50.924;4.516;2023-06-14T00:13:04;19.00;99.90
24408;DHT22;12542;50.924;4.516;2023-06-14T00:15:33;19.00;99.90
24408;DHT22;12542;50.924;4.516;2023-06-14T00:17:59;19.00;99.90
24408;DHT22;12542;50.924;4.516;2023-06-14T00:20:29;18.90;99.90
24408;DHT22;12542;50.924;4.516;2023-06-14T00:22:56;18.80;99.90
24408;DHT22;12542;50.924;4.516;2023-06-14T00:25:25;18.60;99.90
24408;DHT22;12542;50.924;4.516;2023-06-14T00:27:52;18.60;99.90
24408;DHT22;12542;50.924;4.516;2023-06-14T00:30:18;18.50;99.90
24408;DHT22;12542;50.924;4.516;2023-06-14T00:32:44;18.70;99.90
24408;DHT22;12542;50.924;4.516;2023-06-14T00:35:11;18.70;99.90
24408;DHT22;12542;50.924;4.516;2023-06-14T00:37:37;18.60;99.90
24408;DHT22;12542;50.924;4.516;2023-06-14T00:40:03;18.50;99.90
24408;DHT22;12542;50.924;4.516;2023-06-14T00:42:30;18.60;99.90
24408;DHT22;12542;50.924;4.516;2023-06-14T00:44:59;18.50;99.90
24408;DHT22;12542;50.924;4.516;2023-06-14T00:47:24;18.60;99.90
24408;DHT22;12542;50.924;4.516;2023-06-14T00:49:51;18.40;99.90
24408;DHT22;12542;50.924;4.516;2023-06-14T00:52:17;18.20;99.90
24408;DHT22;12542;50.924;4.516;2023-06-14T00:54:43;18.20;99.90
24408;DHT22;12542;50.924;4.516;2023-06-14T00:57:10;18.30;99.90
24408;DHT22;12542;50.924;4.516;2023-06-14T00:59:47;18.30;99.90
24408;DHT22;12542;50.924;4.516;2023-06-14T01:02:13;18.20;99.90
24408;DHT22;12542;50.924;4.516;2023-06-14T01:04:45;18.20;99.90
24408;DHT22;12542;50.924;4.516;2023-06-14T01:07:41;18.30;99.90
24408;DHT22;12542;50.924;4.516;2023-06-14T01:15:40;18.10;99.90
24408;DHT22;12542;50.924;4.516;2023-06-14T01:18:06;18.10;99.90
24408;DHT22;12542;50.924;4.516;2023-06-14T01:20:33;18.10;99.90
24408;DHT22;12542;50.924;4.516;2023-06-14T01:23:02;18.00;99.90
24408;DHT22;12542;50.924;4.516;2023-06-14T01:25:27;17.80;99.90
24408;DHT22;12542;50.924;4.516;2023-06-14T01:27:57;17.90;99.90
24408;DHT22;12542;50.924;4.516;2023-06-14T01:30:24;18.00;99.90
24408;DHT22;12542;50.924;4.516;2023-06-14T01:32:52;17.90;99.90
24408;DHT22;12542;50.924;4.516;2023-06-14T01:35:18;17.90;99.90
24408;DHT22;12542;50.924;4.516;2023-06-14T01:37:44;17.80;99.90
24408;DHT22;12542;50.924;4.516;2023-06-14T01:40:12;17.80;99.90
24408;DHT22;12542;50.924;4.516;2023-06-14T01:42:40;17.90;99.90
24408;DHT22;12542;50.924;4.516;2023-06-14T01:45:07;17.90;99.90
24408;DHT22;12542;50.924;4.516;2023-06-14T01:47:34;18.00;99.90
24408;DHT22;12542;50.924;4.516;2023-06-14T01:50:04;18.00;99.90
24408;DHT22;12542;50.924;4.516;2023-06-14T01:52:29;18.00;99.90
24408;DHT22;12542;50.924;4.516;2023-06-14T01:54:55;17.80;99.90
24408;DHT22;12542;50.924;4.516;2023-06-14T01:57:22;17.70;99.90
24408;DHT22;12542;50.924;4.516;2023-06-14T01:59:48;17.40;99.90
24408;DHT22;12542;50.924;4.516;2023-06-14T02:02:15;17.30;99.90
24408;DHT22;12542;50.924;4.516;2023-06-14T02:04:41;17.40;99.90
24408;DHT22;12542;50.924;4.516;2023-06-14T02:07:07;17.40;99.90
24408;DHT22;12542;50.924;4.516;2023-06-14T02:09:36;17.40;99.90
24408;DHT22;12542;50.924;4.516;2023-06-14T02:12:02;17.40;99.90
24408;DHT22;12542;50.924;4.516;2023-06-14T02:14:27;17.30;99.90
24408;DHT22;12542;50.924;4.516;2023-06-14T02:16:53;17.40;99.90
24408;DHT22;12542;50.924;4.516;2023-06-14T02:19:19;17.40;99.90
24408;DHT22;12542;50.924;4.516;2023-06-14T02:21:46;17.30;99.90
24408;DHT22;12542;50.924;4.516;2023-06-14T02:24:12;17.30;99.90
24408;DHT22;12542;50.924;4.516;2023-06-14T02:26:38;17.30;99.90
24408;DHT22;12542;50.924;4.516;2023-06-14T02:29:07;17.30;99.90
24408;DHT22;12542;50.924;4.516;2023-06-14T02:31:38;17.20;99.90
24408;DHT22;12542;50.924;4.516;2023-06-14T02:34:04;17.20;99.90
24408;DHT22;12542;50.924;4.516;2023-06-14T02:36:29;17.10;99.90
24408;DHT22;12542;50.924;4.516;2023-06-14T02:38:56;17.00;99.90
24408;DHT22;12542;50.924;4.516;2023-06-14T02:41:26;17.00;99.90
24408;DHT22;12542;50.924;4.516;2023-06-14T02:43:54;17.00;99.90
24408;DHT22;12542;50.924;4.516;2023-06-14T02:46:21;17.00;99.90
24408;DHT22;12542;50.924;4.516;2023-06-14T02:48:46;17.00;99.90
24408;DHT22;12542;50.924;4.516;2023-06-14T02:51:12;16.90;99.90
24408;DHT22;12542;50.924;4.516;2023-06-14T02:53:38;17.00;99.90
24408;DHT22;12542;50.924;4.516;2023-06-14T02:56:04;16.90;99.90
24408;DHT22;12542;50.924;4.516;2023-06-14T02:58:30;16.90;99.90
24408;DHT22;12542;50.924;4.516;2023-06-14T03:00:56;16.90;99.90
24408;DHT22;12542;50.924;4.516;2023-06-14T03:03:22;16.90;99.90
24408;DHT22;12542;50.924;4.516;2023-06-14T03:05:50;16.90;99.90
24408;DHT22;12542;50.924;4.516;2023-06-14T03:08:16;16.80;99.90
24408;DHT22;12542;50.924;4.516;2023-06-14T03:10:48;16.80;99.90
24408;DHT22;12542;50.924;4.516;2023-06-14T03:13:15;16.70;99.90
24408;DHT22;12542;50.924;4.516;2023-06-14T03:15:46;16.80;99.90
24408;DHT22;12542;50.924;4.516;2023-06-14T03:18:13;16.70;99.90
24408;DHT22;12542;50.924;4.516;2023-06-14T03:20:40;16.70;99.90
24408;DHT22;12542;50.924;4.516;2023-06-14T03:23:06;16.50;99.90
24408;DHT22;12542;50.924;4.516;2023-06-14T03:25:32;16.30;99.90
24408;DHT22;12542;50.924;4.516;2023-06-14T03:28:01;16.40;99.90
24408;DHT22;12542;50.924;4.516;2023-06-14T03:30:27;16.40;99.90
24408;DHT22;12542;50.924;4.516;2023-06-14T03:32:52;16.40;99.90
24408;DHT22;12542;50.924;4.516;2023-06-14T03:35:21;16.30;99.90
24408;DHT22;12542;50.924;4.516;2023-06-14T03:37:47;16.30;99.90
24408;DHT22;12542;50.924;4.516;2023-06-14T03:40:15;16.40;99.90
24408;DHT22;12542;50.924;4.516;2023-06-14T03:42:40;16.40;99.90
24408;DHT22;12542;50.924;4.516;2023-06-14T03:45:07;16.50;99.90
24408;DHT22;12542;50.924;4.516;2023-06-14T03:47:33;16.50;99.90
24408;DHT22;12542;50.924;4.516;2023-06-14T03:50:02;16.60;99.90
24408;DHT22;12542;50.924;4.516;2023-06-14T03:52:28;16.70;99.90
24408;DHT22;12542;50.924;4.516;2023-06-14T03:54:57;16.70;99.90
24408;DHT22;12542;50.924;4.516;2023-06-14T03:57:23;16.70;99.90
24408;DHT22;12542;50.924;4.516;2023-06-14T03:59:49;16.70;99.90
24408;DHT22;12542;50.924;4.516;2023-06-14T04:02:15;16.70;99.90
24408;DHT22;12542;50.924;4.516;2023-06-14T04:04:42;16.80;99.90
24408;DHT22;12542;50.924;4.516;2023-06-14T04:07:14;16.80;99.90
24408;DHT22;12542;50.924;4.516;2023-06-14T04:09:41;16.90;99.90
24408;DHT22;12542;50.924;4.516;2023-06-14T04:12:07;16.90;99.90
24408;DHT22;12542;50.924;4.516;2023-06-14T04:14:37;17.00;99.90
24408;DHT22;12542;50.924;4.516;2023-06-14T04:17:03;17.20;99.90
24408;DHT22;12542;50.924;4.516;2023-06-14T04:19:29;17.30;99.90
24408;DHT22;12542;50.924;4.516;2023-06-14T04:21:55;17.90;99.90
24408;DHT22;12542;50.924;4.516;2023-06-14T04:24:21;19.10;99.90
24408;DHT22;12542;50.924;4.516;2023-06-14T04:26:46;20.50;99.90
24408;DHT22;12542;50.924;4.516;2023-06-14T04:29:14;21.80;99.90
24408;DHT22;12542;50.924;4.516;2023-06-14T04:31:42;22.90;99.90
24408;DHT22;12542;50.924;4.516;2023-06-14T04:34:08;23.80;98.40
24408;DHT22;12542;50.924;4.516;2023-06-14T04:36:34;24.50;96.30
24408;DHT22;12542;50.924;4.516;2023-06-14T04:39:05;25.10;94.20
24408;DHT22;12542;50.924;4.516;2023-06-14T04:41:31;25.00;94.10
24408;DHT22;12542;50.924;4.516;2023-06-14T04:44:00;25.80;92.90
24408;DHT22;12542;50.924;4.516;2023-06-14T04:46:30;26.50;91.20
24408;DHT22;12542;50.924;4.516;2023-06-14T04:48:57;26.90;90.10
24408;DHT22;12542;50.924;4.516;2023-06-14T04:51:23;27.60;86.60
24408;DHT22;12542;50.924;4.516;2023-06-14T04:53:58;28.20;83.00
24408;DHT22;12542;50.924;4.516;2023-06-14T04:56:27;28.70;79.90
24408;DHT22;12542;50.924;4.516;2023-06-14T04:58:54;29.10;77.60
24408;DHT22;12542;50.924;4.516;2023-06-14T05:01:22;29.40;75.20
24408;DHT22;12542;50.924;4.516;2023-06-14T05:03:49;29.80;73.10
24408;DHT22;12542;50.924;4.516;2023-06-14T05:06:15;30.20;72.50
24408;DHT22;12542;50.924;4.516;2023-06-14T05:08:41;30.50;69.30
24408;DHT22;12542;50.924;4.516;2023-06-14T05:11:07;30.70;68.60
24408;DHT22;12542;50.924;4.516;2023-06-14T05:13:32;31.20;66.70
24408;DHT22;12542;50.924;4.516;2023-06-14T05:15:59;31.40;64.60
24408;DHT22;12542;50.924;4.516;2023-06-14T05:18:26;31.40;64.70
24408;DHT22;12542;50.924;4.516;2023-06-14T05:20:51;32.00;62.40
24408;DHT22;12542;50.924;4.516;2023-06-14T05:23:17;32.40;60.90
24408;DHT22;12542;50.924;4.516;2023-06-14T05:25:44;32.50;60.30
24408;DHT22;12542;50.924;4.516;2023-06-14T05:28:09;32.50;58.80
24408;DHT22;12542;50.924;4.516;2023-06-14T05:30:37;32.40;58.10
24408;DHT22;12542;50.924;4.516;2023-06-14T05:33:03;32.50;56.80
24408;DHT22;12542;50.924;4.516;2023-06-14T05:35:29;31.30;58.80
24408;DHT22;12542;50.924;4.516;2023-06-14T05:37:55;31.30;58.10
24408;DHT22;12542;50.924;4.516;2023-06-14T05:40:23;30.90;57.70
24408;DHT22;12542;50.924;4.516;2023-06-14T05:42:49;30.40;58.90
24408;DHT22;12542;50.924;4.516;2023-06-14T05:45:14;30.70;59.10
24408;DHT22;12542;50.924;4.516;2023-06-14T05:47:43;29.80;58.70
24408;DHT22;12542;50.924;4.516;2023-06-14T05:50:09;29.80;60.20
24408;DHT22;12542;50.924;4.516;2023-06-14T05:52:35;29.80;60.00
24408;DHT22;12542;50.924;4.516;2023-06-14T05:55:03;29.40;60.50
24408;DHT22;12542;50.924;4.516;2023-06-14T05:57:28;29.50;60.00
24408;DHT22;12542;50.924;4.516;2023-06-14T05:59:54;29.30;62.10
24408;DHT22;12542;50.924;4.516;2023-06-14T06:02:22;28.90;61.80
24408;DHT22;12542;50.924;4.516;2023-06-14T06:04:48;29.00;62.00
24408;DHT22;12542;50.924;4.516;2023-06-14T06:07:16;28.50;62.30
24408;DHT22;12542;50.924;4.516;2023-06-14T06:09:42;28.30;63.60
24408;DHT22;12542;50.924;4.516;2023-06-14T06:12:07;27.70;64.80
24408;DHT22;12542;50.924;4.516;2023-06-14T06:14:33;27.60;64.50
24408;DHT22;12542;50.924;4.516;2023-06-14T06:16:59;27.60;66.40
24408;DHT22;12542;50.924;4.516;2023-06-14T06:19:24;28.10;65.70
24408;DHT22;12542;50.924;4.516;2023-06-14T06:21:50;28.00;64.70
24408;DHT22;12542;50.924;4.516;2023-06-14T06:24:16;27.90;65.00
24408;DHT22;12542;50.924;4.516;2023-06-14T06:26:42;27.80;65.80
24408;DHT22;12542;50.924;4.516;2023-06-14T06:29:08;27.90;64.80
24408;DHT22;12542;50.924;4.516;2023-06-14T06:31:33;27.40;66.50
24408;DHT22;12542;50.924;4.516;2023-06-14T06:33:59;27.20;66.60
24408;DHT22;12542;50.924;4.516;2023-06-14T06:36:25;27.00;67.30
24408;DHT22;12542;50.924;4.516;2023-06-14T06:38:51;27.50;67.90
24408;DHT22;12542;50.924;4.516;2023-06-14T06:41:16;27.80;66.90
24408;DHT22;12542;50.924;4.516;2023-06-14T06:43:42;27.80;67.50
24408;DHT22;12542;50.924;4.516;2023-06-14T06:46:08;28.10;65.60
24408;DHT22;12542;50.924;4.516;2023-06-14T06:48:33;27.70;66.30
24408;DHT22;12542;50.924;4.516;2023-06-14T06:50:59;27.60;67.30
24408;DHT22;12542;50.924;4.516;2023-06-14T06:53:25;28.20;67.60
24408;DHT22;12542;50.924;4.516;2023-06-14T06:55:51;28.70;64.60
24408;DHT22;12542;50.924;4.516;2023-06-14T06:58:16;28.30;66.60
24408;DHT22;12542;50.924;4.516;2023-06-14T07:00:42;28.00;66.70
24408;DHT22;12542;50.924;4.516;2023-06-14T07:03:08;28.50;66.10
24408;DHT22;12542;50.924;4.516;2023-06-14T07:05:34;28.60;65.20
24408;DHT22;12542;50.924;4.516;2023-06-14T07:08:00;28.70;64.00
24408;DHT22;12542;50.924;4.516;2023-06-14T07:10:26;28.30;63.60
24408;DHT22;12542;50.924;4.516;2023-06-14T07:12:51;28.10;65.50
24408;DHT22;12542;50.924;4.516;2023-06-14T07:15:17;27.70;66.00
24408;DHT22;12542;50.924;4.516;2023-06-14T07:17:43;28.20;66.90
24408;DHT22;12542;50.924;4.516;2023-06-14T07:20:09;27.80;66.50
24408;DHT22;12542;50.924;4.516;2023-06-14T07:22:38;26.90;68.00
24408;DHT22;12542;50.924;4.516;2023-06-14T07:25:07;26.30;69.10
24408;DHT22;12542;50.924;4.516;2023-06-14T07:27:33;27.10;70.10
24408;DHT22;12542;50.924;4.516;2023-06-14T07:29:59;27.20;68.60
24408;DHT22;12542;50.924;4.516;2023-06-14T07:32:25;27.60;68.30
24408;DHT22;12542;50.924;4.516;2023-06-14T07:34:53;27.50;67.30
24408;DHT22;12542;50.924;4.516;2023-06-14T07:37:19;27.40;68.80
24408;DHT22;12542;50.924;4.516;2023-06-14T07:39:44;28.00;68.80
24408;DHT22;12542;50.924;4.516;2023-06-14T07:42:10;28.70;66.80
24408;DHT22;12542;50.924;4.516;2023-06-14T07:44:36;28.40;65.50
24408;DHT22;12542;50.924;4.516;2023-06-14T07:47:02;28.20;65.60
24408;DHT22;12542;50.924;4.516;2023-06-14T07:49:30;28.80;66.30
24408;DHT22;12542;50.924;4.516;2023-06-14T07:51:56;28.90;65.40
24408;DHT22;12542;50.924;4.516;2023-06-14T07:54:22;29.10;66.40
24408;DHT22;12542;50.924;4.516;2023-06-14T07:56:52;29.30;65.00
24408;DHT22;12542;50.924;4.516;2023-06-14T07:59:18;29.70;63.40
24408;DHT22;12542;50.924;4.516;2023-06-14T08:01:44;29.90;62.00
24408;DHT22;12542;50.924;4.516;2023-06-14T08:04:14;29.90;60.60
24408;DHT22;12542;50.924;4.516;2023-06-14T08:06:40;28.80;61.30
24408;DHT22;12542;50.924;4.516;2023-06-14T08:09:10;28.70;65.00
24408;DHT22;12542;50.924;4.516;2023-06-14T08:11:36;29.10;65.00
24408;DHT22;12542;50.924;4.516;2023-06-14T08:14:02;29.20;65.00
24408;DHT22;12542;50.924;4.516;2023-06-14T08:16:28;29.40;63.70
24408;DHT22;12542;50.924;4.516;2023-06-14T08:18:54;29.70;63.40
24408;DHT22;12542;50.924;4.516;2023-06-14T08:21:22;29.90;63.50
24408;DHT22;12542;50.924;4.516;2023-06-14T08:23:48;30.00;63.80
24408;DHT22;12542;50.924;4.516;2023-06-14T08:26:14;30.20;63.40
24408;DHT22;12542;50.924;4.516;2023-06-14T08:28:40;30.50;63.30
24408;DHT22;12542;50.924;4.516;2023-06-14T08:31:05;30.20;61.90
24408;DHT22;12542;50.924;4.516;2023-06-14T08:33:31;30.00;62.60
24408;DHT22;12542;50.924;4.516;2023-06-14T08:36:00;29.70;62.70
24408;DHT22;12542;50.924;4.516;2023-06-14T08:38:25;28.80;63.00
24408;DHT22;12542;50.924;4.516;2023-06-14T08:40:52;28.60;64.30
24408;DHT22;12542;50.924;4.516;2023-06-14T08:43:22;28.80;65.20
24408;DHT22;12542;50.924;4.516;2023-06-14T08:45:55;29.40;64.90
24408;DHT22;12542;50.924;4.516;2023-06-14T08:48:28;29.00;64.50
24408;DHT22;12542;50.924;4.516;2023-06-14T08:50:59;29.10;63.80
24408;DHT22;12542;50.924;4.516;2023-06-14T08:53:31;29.00;64.90
24408;DHT22;12542;50.924;4.516;2023-06-14T08:55:59;29.30;64.20
24408;DHT22;12542;50.924;4.516;2023-06-14T08:58:28;29.50;64.40
24408;DHT22;12542;50.924;4.516;2023-06-14T09:00:55;29.40;65.00
24408;DHT22;12542;50.924;4.516;2023-06-14T09:03:21;29.30;63.80
24408;DHT22;12542;50.924;4.516;2023-06-14T09:05:48;29.80;62.60
24408;DHT22;12542;50.924;4.516;2023-06-14T09:08:15;30.10;62.50
24408;DHT22;12542;50.924;4.516;2023-06-14T09:10:41;29.70;61.80
24408;DHT22;12542;50.924;4.516;2023-06-14T09:13:07;29.10;64.20
24408;DHT22;12542;50.924;4.516;2023-06-14T09:15:34;29.50;61.70
24408;DHT22;12542;50.924;4.516;2023-06-14T09:18:03;29.70;60.60
24408;DHT22;12542;50.924;4.516;2023-06-14T09:20:30;29.60;62.50
24408;DHT22;12542;50.924;4.516;2023-06-14T09:22:56;29.70;61.20
24408;DHT22;12542;50.924;4.516;2023-06-14T09:25:22;29.30;61.70
24408;DHT22;12542;50.924;4.516;2023-06-14T09:27:48;29.20;63.60
24408;DHT22;12542;50.924;4.516;2023-06-14T09:30:14;28.80;62.60
24408;DHT22;12542;50.924;4.516;2023-06-14T09:32:40;28.90;62.90
24408;DHT22;12542;50.924;4.516;2023-06-14T09:35:06;29.10;62.50
24408;DHT22;12542;50.924;4.516;2023-06-14T09:37:33;28.80;61.10
24408;DHT22;12542;50.924;4.516;2023-06-14T09:39:59;28.80;60.90
24408;DHT22;12542;50.924;4.516;2023-06-14T09:42:25;28.80;61.00
24408;DHT22;12542;50.924;4.516;2023-06-14T09:44:54;28.40;59.90
24408;DHT22;12542;50.924;4.516;2023-06-14T09:47:21;28.70;61.40
24408;DHT22;12542;50.924;4.516;2023-06-14T09:49:48;28.90;59.60
24408;DHT22;12542;50.924;4.516;2023-06-14T09:52:19;28.80;59.00
24408;DHT22;12542;50.924;4.516;2023-06-14T09:54:46;28.70;59.90
24408;DHT22;12542;50.924;4.516;2023-06-14T09:57:17;28.60;59.10
24408;DHT22;12542;50.924;4.516;2023-06-14T09:59:47;28.20;60.20
24408;DHT22;12542;50.924;4.516;2023-06-14T10:02:26;28.30;60.70
24408;DHT22;12542;50.924;4.516;2023-06-14T10:05:03;28.70;58.60
24408;DHT22;12542;50.924;4.516;2023-06-14T10:07:47;29.10;57.50
24408;DHT22;12542;50.924;4.516;2023-06-14T10:10:14;29.40;58.60
24408;DHT22;12542;50.924;4.516;2023-06-14T10:12:40;29.50;59.70
24408;DHT22;12542;50.924;4.516;2023-06-14T10:15:09;29.70;57.70
24408;DHT22;12542;50.924;4.516;2023-06-14T10:20:26;30.50;56.80
24408;DHT22;12542;50.924;4.516;2023-06-14T10:23:31;30.00;54.90
24408;DHT22;12542;50.924;4.516;2023-06-14T10:25:54;29.90;56.00
24408;DHT22;12542;50.924;4.516;2023-06-14T10:28:22;29.90;55.60
24408;DHT22;12542;50.924;4.516;2023-06-14T10:31:12;29.20;56.00
24408;DHT22;12542;50.924;4.516;2023-06-14T10:33:41;28.70;57.10
24408;DHT22;12542;50.924;4.516;2023-06-14T10:36:28;28.80;55.10
24408;DHT22;12542;50.924;4.516;2023-06-14T10:39:06;28.60;55.20
24408;DHT22;12542;50.924;4.516;2023-06-14T10:41:40;29.10;55.30
24408;DHT22;12542;50.924;4.516;2023-06-14T10:46:38;29.60;56.60
24408;DHT22;12542;50.924;4.516;2023-06-14T10:49:04;29.90;53.50
24408;DHT22;12542;50.924;4.516;2023-06-14T10:51:38;29.80;53.80
24408;DHT22;12542;50.924;4.516;2023-06-14T10:54:12;29.70;53.40
24408;DHT22;12542;50.924;4.516;2023-06-14T10:56:52;28.90;54.30
24408;DHT22;12542;50.924;4.516;2023-06-14T10:59:19;29.00;55.10
24408;DHT22;12542;50.924;4.516;2023-06-14T11:04:48;29.20;54.60
24408;DHT22;12542;50.924;4.516;2023-06-14T11:12:32;29.50;54.70
24408;DHT22;12542;50.924;4.516;2023-06-14T11:14:59;29.00;54.80
24408;DHT22;12542;50.924;4.516;2023-06-14T11:17:25;29.00;54.80
24408;DHT22;12542;50.924;4.516;2023-06-14T11:20:07;28.70;55.10
24408;DHT22;12542;50.924;4.516;2023-06-14T11:22:40;28.90;55.10
24408;DHT22;12542;50.924;4.516;2023-06-14T11:25:09;29.20;54.60
24408;DHT22;12542;50.924;4.516;2023-06-14T11:27:35;29.50;53.20
24408;DHT22;12542;50.924;4.516;2023-06-14T11:30:01;29.80;54.80
24408;DHT22;12542;50.924;4.516;2023-06-14T11:32:27;30.20;53.00
24408;DHT22;12542;50.924;4.516;2023-06-14T11:34:53;30.20;50.80
24408;DHT22;12542;50.924;4.516;2023-06-14T11:37:25;30.10;50.90
24408;DHT22;12542;50.924;4.516;2023-06-14T11:39:51;30.30;52.80
24408;DHT22;12542;50.924;4.516;2023-06-14T11:42:17;30.00;51.30
24408;DHT22;12542;50.924;4.516;2023-06-14T11:44:46;29.90;51.40
24408;DHT22;12542;50.924;4.516;2023-06-14T11:47:12;30.30;52.40
24408;DHT22;12542;50.924;4.516;2023-06-14T11:49:38;30.00;51.30
24408;DHT22;12542;50.924;4.516;2023-06-14T11:52:04;29.50;52.20
24408;DHT22;12542;50.924;4.516;2023-06-14T11:54:32;29.90;52.90
24408;DHT22;12542;50.924;4.516;2023-06-14T11:56:58;29.90;52.20
24408;DHT22;12542;50.924;4.516;2023-06-14T11:59:24;29.80;52.30
24408;DHT22;12542;50.924;4.516;2023-06-14T12:01:52;29.70;51.20
24408;DHT22;12542;50.924;4.516;2023-06-14T12:04:24;29.80;53.30
24408;DHT22;12542;50.924;4.516;2023-06-14T12:06:50;29.40;51.30
24408;DHT22;12542;50.924;4.516;2023-06-14T12:09:18;29.20;52.40
24408;DHT22;12542;50.924;4.516;2023-06-14T12:11:45;29.60;52.90
24408;DHT22;12542;50.924;4.516;2023-06-14T12:14:11;29.60;52.10
24408;DHT22;12542;50.924;4.516;2023-06-14T12:16:40;30.00;52.60
24408;DHT22;12542;50.924;4.516;2023-06-14T12:19:16;30.00;51.50
24408;DHT22;12542;50.924;4.516;2023-06-14T12:21:45;29.80;51.50
24408;DHT22;12542;50.924;4.516;2023-06-14T12:24:13;29.40;54.00
24408;DHT22;12542;50.924;4.516;2023-06-14T12:26:39;29.80;53.80
24408;DHT22;12542;50.924;4.516;2023-06-14T12:29:07;30.30;52.70
24408;DHT22;12542;50.924;4.516;2023-06-14T12:31:33;30.30;51.50
24408;DHT22;12542;50.924;4.516;2023-06-14T12:33:58;30.50;51.80
24408;DHT22;12542;50.924;4.516;2023-06-14T12:36:24;30.50;51.00
24408;DHT22;12542;50.924;4.516;2023-06-14T12:38:51;30.20;51.80
24408;DHT22;12542;50.924;4.516;2023-06-14T12:41:20;30.10;52.60
24408;DHT22;12542;50.924;4.516;2023-06-14T12:43:47;29.90;51.50
24408;DHT22;12542;50.924;4.516;2023-06-14T12:46:13;29.40;52.80
24408;DHT22;12542;50.924;4.516;2023-06-14T12:48:39;29.50;53.40
24408;DHT22;12542;50.924;4.516;2023-06-14T12:51:04;29.70;52.40
24408;DHT22;12542;50.924;4.516;2023-06-14T12:53:30;29.80;52.20
24408;DHT22;12542;50.924;4.516;2023-06-14T12:55:56;29.90;51.40
24408;DHT22;12542;50.924;4.516;2023-06-14T12:58:21;30.10;53.40
24408;DHT22;12542;50.924;4.516;2023-06-14T13:00:49;30.20;51.40
24408;DHT22;12542;50.924;4.516;2023-06-14T13:03:15;30.30;51.00
24408;DHT22;12542;50.924;4.516;2023-06-14T13:05:43;30.20;50.40
24408;DHT22;12542;50.924;4.516;2023-06-14T13:08:09;30.20;49.30
24408;DHT22;12542;50.924;4.516;2023-06-14T13:10:34;29.80;50.50
24408;DHT22;12542;50.924;4.516;2023-06-14T13:13:00;29.90;50.50
24408;DHT22;12542;50.924;4.516;2023-06-14T13:15:26;30.10;50.90
24408;DHT22;12542;50.924;4.516;2023-06-14T13:17:53;29.80;49.10
24408;DHT22;12542;50.924;4.516;2023-06-14T13:20:18;29.30;50.00
24408;DHT22;12542;50.924;4.516;2023-06-14T13:22:44;29.10;49.60
24408;DHT22;12542;50.924;4.516;2023-06-14T13:25:10;29.20;50.50
24408;DHT22;12542;50.924;4.516;2023-06-14T13:27:36;29.40;50.60
24408;DHT22;12542;50.924;4.516;2023-06-14T13:30:02;29.60;49.90
24408;DHT22;12542;50.924;4.516;2023-06-14T13:32:28;29.20;50.50
24408;DHT22;12542;50.924;4.516;2023-06-14T13:34:54;28.90;50.20
24408;DHT22;12542;50.924;4.516;2023-06-14T13:37:20;28.90;50.50
24408;DHT22;12542;50.924;4.516;2023-06-14T13:39:45;29.10;50.50
24408;DHT22;12542;50.924;4.516;2023-06-14T13:42:13;29.10;49.90
24408;DHT22;12542;50.924;4.516;2023-06-14T13:44:39;28.80;49.20
24408;DHT22;12542;50.924;4.516;2023-06-14T13:47:05;29.10;50.30
24408;DHT22;12542;50.924;4.516;2023-06-14T13:49:31;29.50;48.40
24408;DHT22;12542;50.924;4.516;2023-06-14T13:51:57;29.60;48.30
24408;DHT22;12542;50.924;4.516;2023-06-14T13:54:23;29.40;49.00
24408;DHT22;12542;50.924;4.516;2023-06-14T13:56:48;29.60;48.50
24408;DHT22;12542;50.924;4.516;2023-06-14T13:59:14;29.80;47.50
24408;DHT22;12542;50.924;4.516;2023-06-14T14:01:41;29.30;47.50
24408;DHT22;12542;50.924;4.516;2023-06-14T14:04:06;29.00;47.90
24408;DHT22;12542;50.924;4.516;2023-06-14T14:06:32;29.30;49.00
24408;DHT22;12542;50.924;4.516;2023-06-14T14:08:58;29.40;48.20
24408;DHT22;12542;50.924;4.516;2023-06-14T14:11:24;29.50;49.10
24408;DHT22;12542;50.924;4.516;2023-06-14T14:13:50;29.80;49.60
24408;DHT22;12542;50.924;4.516;2023-06-14T14:16:15;29.90;47.80
24408;DHT22;12542;50.924;4.516;2023-06-14T14:18:41;29.80;46.90
24408;DHT22;12542;50.924;4.516;2023-06-14T14:21:07;29.90;47.60
24408;DHT22;12542;50.924;4.516;2023-06-14T14:23:33;29.60;48.10
24408;DHT22;12542;50.924;4.516;2023-06-14T14:25:59;29.40;46.60
24408;DHT22;12542;50.924;4.516;2023-06-14T14:28:28;29.10;47.10
24408;DHT22;12542;50.924;4.516;2023-06-14T14:30:54;28.80;47.90
24408;DHT22;12542;50.924;4.516;2023-06-14T14:33:20;28.80;47.80
24408;DHT22;12542;50.924;4.516;2023-06-14T14:35:50;28.70;48.00
24408;DHT22;12542;50.924;4.516;2023-06-14T14:38:16;28.80;48.00
24408;DHT22;12542;50.924;4.516;2023-06-14T14:40:44;28.90;47.70
24408;DHT22;12542;50.924;4.516;2023-06-14T14:43:10;29.10;48.10
24408;DHT22;12542;50.924;4.516;2023-06-14T14:45:36;28.90;48.70
24408;DHT22;12542;50.924;4.516;2023-06-14T14:48:02;28.90;50.00
24408;DHT22;12542;50.924;4.516;2023-06-14T14:50:30;28.70;49.90
24408;DHT22;12542;50.924;4.516;2023-06-14T14:52:56;28.60;50.00
24408;DHT22;12542;50.924;4.516;2023-06-14T14:55:22;28.70;49.90
24408;DHT22;12542;50.924;4.516;2023-06-14T14:57:47;28.70;49.30
24408;DHT22;12542;50.924;4.516;2023-06-14T15:00:13;28.90;49.90
24408;DHT22;12542;50.924;4.516;2023-06-14T15:02:39;28.70;49.80
24408;DHT22;12542;50.924;4.516;2023-06-14T15:05:05;28.60;49.30
24408;DHT22;12542;50.924;4.516;2023-06-14T15:07:31;28.10;50.60
24408;DHT22;12542;50.924;4.516;2023-06-14T15:09:59;28.30;49.90
24408;DHT22;12542;50.924;4.516;2023-06-14T15:12:25;28.60;50.20
24408;DHT22;12542;50.924;4.516;2023-06-14T15:14:53;28.30;49.10
24408;DHT22;12542;50.924;4.516;2023-06-14T15:17:20;28.40;50.60
24408;DHT22;12542;50.924;4.516;2023-06-14T15:19:46;28.70;50.80
24408;DHT22;12542;50.924;4.516;2023-06-14T15:22:13;28.80;50.10
24408;DHT22;12542;50.924;4.516;2023-06-14T15:24:40;28.60;49.60
24408;DHT22;12542;50.924;4.516;2023-06-14T15:27:06;28.50;50.30
24408;DHT22;12542;50.924;4.516;2023-06-14T15:29:32;28.70;50.00
24408;DHT22;12542;50.924;4.516;2023-06-14T15:31:58;28.60;50.60
24408;DHT22;12542;50.924;4.516;2023-06-14T15:34:24;28.70;49.60
24408;DHT22;12542;50.924;4.516;2023-06-14T15:36:50;28.50;49.70
24408;DHT22;12542;50.924;4.516;2023-06-14T15:39:15;28.40;49.70
24408;DHT22;12542;50.924;4.516;2023-06-14T15:41:41;28.40;50.50
24408;DHT22;12542;50.924;4.516;2023-06-14T15:44:07;28.20;49.70
24408;DHT22;12542;50.924;4.516;2023-06-14T15:46:33;28.20;49.10
24408;DHT22;12542;50.924;4.516;2023-06-14T15:48:59;28.20;49.60